Time;durP1;ratioP1;P1;durP2;ratioP2;P2;SDS_P1;SDS_P2;PMS_P1;PMS_P2;Temp;Humidity;BMP_temperature;BMP_pressure;BME280_temperature;BME280_humidity;BME280_pressure;Samples;Min_cycle;Max_cycle;Signal;HPM_P1;HPM_P2
2023/11/17 07:46:47;;;;;;;;;3.00;1.67;;;;;22.10;45.12;101926.28;5992443;23;46566;-74
2023/11/17 07:49:13;;;;;;;;;1.00;1.00;;;;;22.09;44.73;101914.03;4951551;28;45385;-75
2023/11/17 07:51:38;;;;;;;;;0.67;0.67;;;;;22.10;44.72;101913.03;4959405;28;47546;-70
2023/11/17 07:54:04;;;;;;;;;1.00;1.00;;;;;22.02;44.62;101913.78;4945630;28;45528;-70
2023/11/17 07:56:30;;;;;;;;;1.00;1.00;;;;;22.00;44.66;101918.41;4942505;28;46517;-71
2023/11/17 07:58:56;;;;;;;;;1.00;1.00;;;;;22.10;45.08;101933.38;4950770;28;45564;-70
2023/11/17 08:01:22;;;;;;;;;2.00;0.00;;;;;22.04;44.82;101922.41;4951942;28;46345;-70
2023/11/17 08:03:47;;;;;;;;;1.67;0.33;;;;;22.05;45.11;101923.25;4949704;28;45625;-70
2023/11/17 08:06:13;;;;;;;;;0.00;0.00;;;;;22.10;45.07;101936.03;4952027;28;45873;-71
2023/11/17 08:08:40;;;;;;;;;0.67;0.67;;;;;22.03;44.97;101933.19;4951711;28;45418;-70
2023/11/17 08:11:08;;;;;;;;;1.33;0.33;;;;;22.09;44.65;101943.19;4951383;28;47102;-68
2023/11/17 08:13:33;;;;;;;;;1.00;1.00;;;;;22.03;44.52;101951.72;4951209;28;45515;-69
2023/11/17 08:15:59;;;;;;;;;1.33;1.00;;;;;22.07;44.52;101963.69;4952326;28;56216;-69
2023/11/17 08:18:24;;;;;;;;;0.00;0.00;;;;;22.01;45.00;101946.59;4957740;28;45641;-68
2023/11/17 08:20:50;;;;;;;;;0.00;0.00;;;;;22.02;44.74;101936.81;4955700;28;46273;-70
2023/11/17 08:23:15;;;;;;;;;0.67;0.67;;;;;22.06;44.85;101948.78;4954808;28;46653;-70
2023/11/17 08:25:42;;;;;;;;;1.33;0.33;;;;;21.97;45.14;101934.63;4956138;28;45428;-70
2023/11/17 08:28:07;;;;;;;;;0.00;0.00;;;;;22.06;44.98;101941.66;4954686;28;45895;-70
2023/11/17 08:30:33;;;;;;;;;0.00;0.00;;;;;22.02;44.54;101927.03;4954197;28;45892;-69
2023/11/17 08:32:59;;;;;;;;;1.33;1.00;;;;;22.00;44.46;101928.19;4954224;28;45424;-70
2023/11/17 08:35:24;;;;;;;;;1.00;0.67;;;;;21.93;44.46;101920.88;4954203;28;45517;-70
2023/11/17 08:37:52;;;;;;;;;0.00;0.00;;;;;22.06;44.86;101954.09;4954420;28;45578;-70
2023/11/17 08:40:18;;;;;;;;;2.00;1.00;;;;;22.05;44.47;101952.41;4954946;28;46099;-70
2023/11/17 08:42:46;;;;;;;;;1.00;1.00;;;;;22.06;44.56;101951.44;4954813;28;45488;-69
2023/11/17 08:45:12;;;;;;;;;0.00;0.00;;;;;22.04;44.93;101959.50;4954877;28;45498;-70
2023/11/17 08:47:39;;;;;;;;;0.67;0.67;;;;;22.05;44.46;101971.78;4953992;28;45856;-70
2023/11/17 08:50:07;;;;;;;;;1.33;1.00;;;;;22.06;44.46;101964.69;4953636;28;46083;-70
2023/11/17 08:52:42;;;;;;;;;2.00;1.00;;;;;22.09;44.77;101967.03;4954293;28;45743;-70
2023/11/17 08:55:10;;;;;;;;;0.00;0.00;;;;;22.07;44.32;101963.69;4954813;28;45381;-70
2023/11/17 08:57:36;;;;;;;;;0.00;0.00;;;;;22.10;44.35;101965.19;4954323;28;45536;-71
2023/11/17 09:00:13;;;;;;;;;2.00;0.67;;;;;22.09;44.50;101959.09;4954354;28;46529;-69
2023/11/17 09:02:44;;;;;;;;;0.33;0.33;;;;;22.09;44.60;101956.44;4953116;28;45839;-70
2023/11/17 09:05:10;;;;;;;;;0.67;0.67;;;;;22.03;44.60;101947.28;4954436;28;45434;-70
2023/11/17 09:07:49;;;;;;;;;0.33;0.33;;;;;22.06;44.84;101946.13;4954045;28;45460;-70
2023/11/17 09:10:16;;;;;;;;;1.00;1.00;;;;;22.07;44.35;101959.22;4954650;28;46361;-69
2023/11/17 09:12:42;;;;;;;;;1.67;0.00;;;;;22.06;44.19;101962.88;4953910;28;45457;-70
2023/11/17 09:15:18;;;;;;;;;1.00;1.00;;;;;22.06;44.52;101980.59;4953625;28;45416;-70
2023/11/17 09:17:47;;;;;;;;;1.00;1.00;;;;;21.97;44.49;101969.06;4953140;28;45447;-70
2023/11/17 09:20:13;;;;;;;;;2.00;1.00;;;;;22.05;44.62;101981.56;4954172;28;47081;-70
2023/11/17 09:22:42;;;;;;;;;0.67;0.67;;;;;22.04;44.56;101985.22;4954122;28;45346;-70
2023/11/17 09:25:14;;;;;;;;;0.00;0.00;;;;;22.05;44.45;101989.50;4953989;28;45376;-70
2023/11/17 09:27:40;;;;;;;;;0.00;0.00;;;;;22.04;44.57;102001.91;4953776;28;45484;-69
2023/11/17 09:30:07;;;;;;;;;0.00;0.00;;;;;21.88;44.89;101970.00;4953772;28;47096;-70
2023/11/17 09:32:32;;;;;;;;;1.67;1.67;;;;;21.96;44.52;101983.31;4953373;28;45313;-70
2023/11/17 09:34:57;;;;;;;;;0.67;0.67;;;;;21.89;44.28;101969.00;4954277;28;45374;-70
2023/11/17 09:37:23;;;;;;;;;0.00;0.00;;;;;22.02;44.66;102000.41;4954616;28;45536;-69
2023/11/17 09:39:48;;;;;;;;;0.67;0.33;;;;;22.03;44.30;102002.09;4953482;28;47425;-70
2023/11/17 09:42:15;;;;;;;;;0.00;0.00;;;;;21.98;44.53;101994.59;4953798;28;46337;-69
2023/11/17 09:44:42;;;;;;;;;0.00;0.00;;;;;22.03;44.13;102012.69;4953724;28;45491;-70
2023/11/17 09:47:31;;;;;;;;;1.00;1.00;;;;;22.02;44.48;102000.41;4953497;28;45468;-70
2023/11/17 09:49:59;;;;;;;;;2.00;1.00;;;;;21.95;44.45;102003.69;4953435;28;46907;-70
2023/11/17 09:52:25;;;;;;;;;1.00;1.00;;;;;21.99;44.34;102003.38;4954265;28;45343;-70
2023/11/17 09:54:52;;;;;;;;;0.67;0.67;;;;;22.06;44.43;102010.56;4953440;28;45417;-69
2023/11/17 09:57:19;;;;;;;;;1.00;1.00;;;;;22.03;44.13;102010.03;4953743;28;46475;-70
2023/11/17 09:59:45;;;;;;;;;2.33;1.00;;;;;22.09;43.97;102021.84;4952696;28;46198;-70
2023/11/17 10:02:15;;;;;;;;;1.00;1.00;;;;;22.00;44.26;102003.22;4952955;28;45290;-69
2023/11/17 10:04:41;;;;;;;;;1.00;1.00;;;;;22.10;44.52;102018.19;4953187;28;45969;-69
2023/11/17 10:07:07;;;;;;;;;1.00;1.00;;;;;22.11;44.52;102020.72;4953553;28;45524;-70
2023/11/17 10:09:34;;;;;;;;;1.67;1.67;;;;;22.07;44.28;102009.56;4953223;28;46038;-70
2023/11/17 10:12:00;;;;;;;;;2.00;2.00;;;;;22.13;44.26;102026.69;4953006;28;45468;-69
2023/11/17 10:14:27;;;;;;;;;2.00;2.00;;;;;22.14;43.93;102027.53;4953519;28;45946;-70
2023/11/17 10:16:55;;;;;;;;;1.00;1.00;;;;;22.13;44.30;102024.03;4955130;28;45382;-70
2023/11/17 10:19:23;;;;;;;;;1.00;1.00;;;;;22.09;44.19;102012.09;4953397;28;46416;-68
2023/11/17 10:21:49;;;;;;;;;1.33;0.33;;;;;22.12;44.42;102025.00;4955330;28;45558;-68
2023/11/17 10:24:14;;;;;;;;;1.00;1.00;;;;;22.09;44.66;102020.03;4953086;28;45316;-69
2023/11/17 10:26:39;;;;;;;;;1.00;1.00;;;;;22.13;43.95;102036.44;4953275;28;45445;-69
2023/11/17 10:29:06;;;;;;;;;0.67;0.67;;;;;22.02;44.14;102018.94;4952911;28;45818;-69
2023/11/17 10:31:37;;;;;;;;;0.00;0.00;;;;;22.12;44.41;102037.47;4953034;28;45419;-70
2023/11/17 10:34:11;;;;;;;;;1.67;1.00;;;;;22.14;43.89;102040.78;4953039;28;46442;-70
2023/11/17 10:36:54;;;;;;;;;1.00;1.00;;;;;22.16;44.46;102049.41;4952791;28;45511;-70
2023/11/17 10:39:19;;;;;;;;;1.00;1.00;;;;;22.10;43.90;102037.59;4952259;28;46277;-69
2023/11/17 10:41:46;;;;;;;;;1.00;1.00;;;;;21.92;44.26;101995.19;4951689;28;54100;-70
2023/11/17 10:44:14;;;;;;;;;2.00;2.00;;;;;22.11;44.42;102022.53;4952805;28;45563;-69
2023/11/17 10:46:40;;;;;;;;;1.00;1.00;;;;;22.23;43.95;102044.31;4952592;28;45488;-69
2023/11/17 10:49:06;;;;;;;;;1.00;1.00;;;;;22.24;43.92;102044.19;4952680;28;45516;-70
2023/11/17 10:51:32;;;;;;;;;2.00;2.00;;;;;22.26;43.71;102046.66;4952483;28;45431;-70
2023/11/17 10:54:04;;;;;;;;;3.67;0.67;;;;;22.27;43.80;102053.66;4952559;28;45437;-70
2023/11/17 10:56:30;;;;;;;;;1.00;1.00;;;;;22.20;43.97;102040.16;4953117;28;45366;-70
2023/11/17 10:58:58;;;;;;;;;1.67;1.67;;;;;22.23;43.67;102036.38;4952517;28;45346;-70
2023/11/17 11:01:30;;;;;;;;;1.00;0.67;;;;;22.30;43.81;102045.41;4953519;28;45390;-69
2023/11/17 11:03:56;;;;;;;;;1.33;1.33;;;;;22.26;43.80;102038.72;4953050;28;45532;-70
2023/11/17 11:06:21;;;;;;;;;2.00;0.67;;;;;22.32;43.59;102055.84;4953171;28;45500;-69
2023/11/17 11:08:54;;;;;;;;;1.33;1.33;;;;;22.32;44.15;102061.13;4952443;28;46061;-70
2023/11/17 11:11:25;;;;;;;;;0.67;0.67;;;;;22.32;43.58;102061.97;4952692;28;45496;-70
2023/11/17 11:13:56;;;;;;;;;3.67;1.00;;;;;22.33;43.60;102060.16;4951967;28;45445;-69
2023/11/17 11:16:24;;;;;;;;;0.33;0.33;;;;;22.32;44.05;102061.97;4952920;28;45319;-70
2023/11/17 11:18:53;;;;;;;;;1.33;1.33;;;;;22.33;43.73;102070.78;4952159;28;46310;-69
2023/11/17 11:21:18;;;;;;;;;3.33;2.00;;;;;22.31;43.99;102072.72;4952615;28;45849;-70
2023/11/17 11:23:45;;;;;;;;;1.00;1.00;;;;;22.30;44.15;102069.25;4952395;28;45421;-70
2023/11/17 11:26:13;;;;;;;;;1.00;1.00;;;;;22.22;43.82;102062.06;4951885;28;45503;-69
2023/11/17 11:28:42;;;;;;;;;1.00;1.00;;;;;22.28;43.84;102071.22;4951401;28;45520;-69
2023/11/17 11:31:12;;;;;;;;;0.67;0.67;;;;;22.26;44.11;102070.53;4952374;28;45409;-70
2023/11/17 11:33:38;;;;;;;;;0.67;0.67;;;;;22.26;43.85;102068.72;4951299;28;45405;-68
2023/11/17 11:36:05;;;;;;;;;2.33;1.00;;;;;22.27;43.77;102066.91;4953677;28;45422;-68
2023/11/17 11:38:31;;;;;;;;;2.33;1.00;;;;;22.26;43.77;102058.13;4951808;28;46338;-67
2023/11/17 11:40:58;;;;;;;;;1.00;1.00;;;;;22.23;44.04;102054.91;4952604;28;45566;-70
2023/11/17 11:43:27;;;;;;;;;1.00;1.00;;;;;22.15;44.01;102037.97;4952652;28;45452;-70
2023/11/17 11:45:53;;;;;;;;;1.67;0.67;;;;;22.28;43.92;102060.59;4952296;28;45559;-70
2023/11/17 11:48:24;;;;;;;;;2.67;2.00;;;;;22.31;44.58;102059.47;4952202;28;46579;-69
2023/11/17 11:50:52;;;;;;;;;3.00;2.00;;;;;22.31;44.80;102060.31;4952317;28;45248;-68
2023/11/17 11:53:24;;;;;;;;;3.00;2.00;;;;;22.32;44.52;102058.50;4955608;28;45427;-69
2023/11/17 11:56:01;;;;;;;;;2.00;2.00;;;;;22.31;44.51;102052.34;4954779;28;45523;-69
2023/11/17 11:58:27;;;;;;;;;1.00;1.00;;;;;22.24;44.94;102044.19;4955522;28;45263;-69
2023/11/17 12:00:54;;;;;;;;;1.00;1.00;;;;;22.31;44.89;102057.66;4955585;28;45441;-69
2023/11/17 12:03:21;;;;;;;;;2.00;2.00;;;;;22.33;45.05;102049.56;4954958;28;45472;-69
2023/11/17 12:05:48;;;;;;;;;0.67;0.67;;;;;22.26;44.73;102044.84;4955237;28;46172;-69
2023/11/17 12:08:27;;;;;;;;;1.00;1.00;;;;;22.22;44.86;102030.25;4955137;28;45492;-69
2023/11/17 12:10:54;;;;;;;;;2.33;1.67;;;;;22.35;44.77;102055.53;4954970;28;45346;-69
2023/11/17 12:13:42;;;;;;;;;1.33;1.00;;;;;22.38;44.65;102071.13;4955410;28;46467;-70
2023/11/17 12:16:10;;;;;;;;;2.00;2.00;;;;;22.38;44.50;102064.00;4955161;28;46316;-70
2023/11/17 12:18:35;;;;;;;;;1.00;1.00;;;;;22.40;44.68;102061.22;4954998;28;45448;-69
2023/11/17 12:21:17;;;;;;;;;1.00;0.33;;;;;22.40;44.63;102056.72;4955139;28;45363;-69
2023/11/17 12:23:55;;;;;;;;;1.00;1.00;;;;;22.36;44.99;102052.72;4954904;28;45795;-69
2023/11/17 12:26:26;;;;;;;;;4.00;1.67;;;;;22.40;44.96;102059.38;4954944;28;45433;-69
2023/11/17 12:28:53;;;;;;;;;2.00;1.33;;;;;22.40;45.22;102058.56;4954645;28;46042;-69
2023/11/17 12:31:19;;;;;;;;;2.00;2.00;;;;;22.43;45.49;102065.38;4954521;28;45292;-69
2023/11/17 12:33:51;;;;;;;;;2.67;1.67;;;;;22.39;44.88;102051.59;4954858;28;45434;-69
2023/11/17 12:36:21;;;;;;;;;3.00;1.00;;;;;22.43;45.29;102063.53;4954838;28;45589;-69
2023/11/17 12:38:51;;;;;;;;;3.67;1.00;;;;;22.43;45.30;102060.09;4954202;28;46165;-69
2023/11/17 12:41:16;;;;;;;;;1.33;1.00;;;;;22.38;44.87;102055.22;4954187;28;45426;-68
2023/11/17 12:43:47;;;;;;;;;1.67;1.67;;;;;22.42;44.82;102059.25;4951708;28;45700;-69
2023/11/17 12:46:13;;;;;;;;;2.00;1.00;;;;;22.40;44.47;102062.03;4953427;28;45475;-70
2023/11/17 12:48:39;;;;;;;;;2.00;2.00;;;;;22.40;44.70;102061.22;4954099;28;46186;-69
2023/11/17 12:51:05;;;;;;;;;1.00;1.00;;;;;22.32;44.96;102047.88;4954298;28;45971;-69
2023/11/17 12:53:40;;;;;;;;;2.00;0.67;;;;;22.40;44.80;102061.22;4954512;28;45330;-69
2023/11/17 12:56:07;;;;;;;;;1.00;1.00;;;;;22.37;45.00;102057.06;4954413;28;45524;-68
2023/11/17 12:58:33;;;;;;;;;2.67;1.00;;;;;22.37;45.04;102061.53;4954086;28;45288;-70
2023/11/17 13:01:26;;;;;;;;;1.00;1.00;;;;;22.36;45.04;102065.16;4954526;28;45432;-70
2023/11/17 13:03:56;;;;;;;;;2.00;1.00;;;;;22.29;45.09;102060.47;4955743;28;45425;-69
2023/11/17 13:06:25;;;;;;;;;2.00;1.00;;;;;22.34;45.16;102078.56;4954604;28;45616;-69
2023/11/17 13:08:52;;;;;;;;;0.00;0.00;;;;;22.34;44.49;102077.72;4953677;28;46382;-69
2023/11/17 13:11:21;;;;;;;;;1.00;1.00;;;;;22.34;44.99;102075.91;4954098;28;45422;-69
2023/11/17 13:13:47;;;;;;;;;0.67;0.67;;;;;22.30;44.78;102069.25;4953881;28;45453;-68
2023/11/17 13:16:15;;;;;;;;;2.00;2.00;;;;;22.34;44.65;102077.72;4954598;28;45458;-69
2023/11/17 13:18:45;;;;;;;;;1.00;1.00;;;;;22.34;44.42;102083.88;4953664;28;46250;-69
2023/11/17 13:21:13;;;;;;;;;2.00;2.00;;;;;22.32;44.51;102075.25;4953228;28;45305;-69
2023/11/17 13:23:41;;;;;;;;;2.00;2.00;;;;;22.32;44.68;102077.88;4953491;28;45370;-69
2023/11/17 13:26:10;;;;;;;;;1.33;0.67;;;;;22.31;44.69;102076.22;4953986;28;45385;-69
2023/11/17 13:28:40;;;;;;;;;1.00;1.00;;;;;22.31;44.51;102078.03;4953788;28;45451;-69
2023/11/17 13:31:11;;;;;;;;;1.00;1.00;;;;;22.30;44.44;102079.88;4954106;28;45411;-69
2023/11/17 13:33:38;;;;;;;;;1.00;1.00;;;;;22.30;44.93;102082.50;4953847;28;45305;-69
2023/11/17 13:36:04;;;;;;;;;2.00;2.00;;;;;22.30;44.99;102090.47;4954004;28;45351;-69
2023/11/17 13:38:31;;;;;;;;;3.00;1.33;;;;;22.29;44.37;102092.28;4953139;28;46209;-70
2023/11/17 13:40:57;;;;;;;;;0.33;0.33;;;;;22.30;44.42;102098.44;4954569;28;45424;-68
2023/11/17 13:43:23;;;;;;;;;2.00;2.00;;;;;22.29;44.85;102094.94;4954575;28;45612;-68
2023/11/17 13:45:50;;;;;;;;;1.00;1.00;;;;;22.29;44.91;102094.09;4953295;28;45426;-69
2023/11/17 13:48:15;;;;;;;;;1.67;1.00;;;;;22.30;44.24;102085.16;4953649;28;45458;-69
2023/11/17 13:50:51;;;;;;;;;1.67;0.00;;;;;22.31;44.36;102091.28;4953466;28;45334;-69
2023/11/17 13:53:18;;;;;;;;;1.00;1.00;;;;;22.24;44.50;102083.13;4953420;28;45318;-70
2023/11/17 13:55:46;;;;;;;;;1.67;0.33;;;;;22.29;44.43;102100.25;4953584;28;45382;-69
2023/11/17 13:58:11;;;;;;;;;0.67;0.67;;;;;22.30;44.07;102103.72;4953265;28;46444;-67
2023/11/17 14:00:37;;;;;;;;;1.00;1.00;;;;;22.25;44.40;102101.50;4953265;28;45469;-68
2023/11/17 14:03:03;;;;;;;;;3.00;1.00;;;;;22.23;44.09;102107.94;4952571;28;50499;-69
2023/11/17 14:05:29;;;;;;;;;1.00;1.00;;;;;22.22;44.09;102093.88;4953349;28;45881;-70
2023/11/17 14:07:55;;;;;;;;;2.00;2.00;;;;;22.28;43.98;102093.25;4952991;28;57313;-67
2023/11/17 14:10:20;;;;;;;;;2.00;0.00;;;;;22.28;44.31;102103.03;4953840;28;45477;-69
2023/11/17 14:12:46;;;;;;;;;1.00;1.00;;;;;22.28;43.98;102101.22;4952755;28;45521;-69
2023/11/17 14:15:12;;;;;;;;;1.00;1.00;;;;;22.27;43.90;102112.81;4953367;28;45696;-69
2023/11/17 14:17:37;;;;;;;;;1.33;1.33;;;;;22.27;44.40;102112.81;4952505;28;45540;-69
2023/11/17 14:20:09;;;;;;;;;0.00;0.00;;;;;22.28;44.30;102116.28;4952391;28;45952;-68
2023/11/17 14:22:35;;;;;;;;;1.00;1.00;;;;;22.27;44.34;102101.38;4952592;28;45509;-69
2023/11/17 14:25:09;;;;;;;;;1.00;1.00;;;;;22.25;44.02;102109.47;4953341;28;45491;-70
2023/11/17 14:27:34;;;;;;;;;0.00;0.00;;;;;22.26;43.88;102115.59;4953030;28;46419;-70
2023/11/17 14:29:59;;;;;;;;;2.67;1.00;;;;;22.26;44.23;102121.75;4952590;28;54170;-69
2023/11/17 14:32:24;;;;;;;;;2.00;0.33;;;;;22.26;44.39;102120.91;4954157;28;45291;-70
2023/11/17 14:34:51;;;;;;;;;2.33;0.67;;;;;22.26;43.83;102126.22;4953226;28;46577;-69
2023/11/17 14:37:17;;;;;;;;;0.00;0.00;;;;;22.25;43.83;102129.84;4952741;28;47041;-69
2023/11/17 14:39:42;;;;;;;;;1.00;1.00;;;;;22.23;44.04;102140.59;4952660;28;45401;-70
2023/11/17 14:42:08;;;;;;;;;1.00;1.00;;;;;22.22;43.88;102127.50;4953102;28;45395;-70
2023/11/17 14:44:34;;;;;;;;;0.67;0.67;;;;;22.25;43.78;102133.31;4953147;28;45418;-70
2023/11/17 14:47:00;;;;;;;;;1.00;1.00;;;;;22.26;44.04;102131.50;4952504;28;47218;-70
2023/11/17 14:49:28;;;;;;;;;1.00;1.00;;;;;22.23;44.04;102126.50;4953257;28;45889;-67
2023/11/17 14:51:59;;;;;;;;;1.00;1.00;;;;;22.24;43.99;102136.13;4952660;28;45306;-69
2023/11/17 14:54:25;;;;;;;;;0.67;0.67;;;;;22.23;43.96;102132.63;4953509;28;45424;-69
2023/11/17 14:56:50;;;;;;;;;0.00;0.00;;;;;22.18;44.58;102119.00;4952867;28;46120;-69
2023/11/17 14:59:15;;;;;;;;;2.00;2.00;;;;;22.16;44.24;102110.38;4952714;28;45939;-69
2023/11/17 15:01:42;;;;;;;;;1.67;1.00;;;;;22.21;44.14;102128.47;4952325;28;45577;-69
2023/11/17 15:04:07;;;;;;;;;2.00;2.00;;;;;22.22;44.04;102131.00;4952487;28;45405;-69
2023/11/17 15:06:33;;;;;;;;;1.00;1.00;;;;;22.22;43.87;102130.16;4950847;28;48360;-70
2023/11/17 15:08:58;;;;;;;;;1.67;0.00;;;;;22.22;44.30;102127.50;4953040;28;45322;-70
2023/11/17 15:11:26;;;;;;;;;1.00;1.00;;;;;22.22;44.10;102128.34;4953222;28;45887;-69
2023/11/17 15:13:57;;;;;;;;;1.00;1.00;;;;;22.22;43.72;102130.16;4952779;28;45649;-69
2023/11/17 15:16:28;;;;;;;;;1.00;1.00;;;;;22.21;44.04;102136.44;4953092;28;46386;-69
2023/11/17 15:18:57;;;;;;;;;1.00;1.00;;;;;22.21;43.57;102131.13;4952579;28;45414;-70
2023/11/17 15:21:25;;;;;;;;;0.00;0.00;;;;;22.20;43.61;102129.47;4953391;28;45478;-70
2023/11/17 15:23:54;;;;;;;;;0.00;0.00;;;;;22.18;43.87;102133.09;4952875;28;45369;-69
2023/11/17 15:26:21;;;;;;;;;1.67;1.67;;;;;22.18;43.53;102122.50;4955409;28;46112;-69
2023/11/17 15:28:50;;;;;;;;;1.00;1.00;;;;;22.11;44.05;102117.94;4955612;28;45449;-69
2023/11/17 15:31:23;;;;;;;;;1.00;1.00;;;;;22.17;44.24;102120.81;4956117;28;45329;-69
2023/11/17 15:33:52;;;;;;;;;1.00;1.00;;;;;22.17;44.29;102120.00;4955349;28;45492;-70
2023/11/17 15:36:18;;;;;;;;;1.00;1.00;;;;;22.16;44.09;102118.31;4955948;28;46140;-69
2023/11/17 15:38:44;;;;;;;;;0.00;0.00;;;;;22.14;44.35;102115.84;4954787;28;45921;-70
2023/11/17 15:41:18;;;;;;;;;1.00;1.00;;;;;22.18;43.92;102122.50;4955820;28;45425;-69
2023/11/17 15:43:47;;;;;;;;;1.67;0.33;;;;;22.07;44.28;102104.13;4953142;28;45467;-69
2023/11/17 15:46:24;;;;;;;;;0.00;0.00;;;;;22.20;43.81;102129.47;4955023;28;45441;-69
2023/11/17 15:48:54;;;;;;;;;2.00;2.00;;;;;22.16;44.22;102129.78;4954720;28;45530;-69
2023/11/17 15:51:20;;;;;;;;;1.00;0.33;;;;;22.20;43.95;102132.13;4956431;28;45271;-69
2023/11/17 15:53:49;;;;;;;;;1.00;1.00;;;;;22.06;43.99;102116.59;4955833;28;45618;-69
2023/11/17 15:56:16;;;;;;;;;0.67;0.67;;;;;22.20;43.90;102134.78;4953316;28;47812;-69
2023/11/17 15:58:42;;;;;;;;;3.00;1.00;;;;;22.19;44.25;102139.25;4955279;28;45492;-69
2023/11/17 16:01:08;;;;;;;;;2.33;0.33;;;;;22.18;43.84;102132.25;4955718;28;45500;-70
2023/11/17 16:03:40;;;;;;;;;1.33;1.00;;;;;22.18;44.46;102140.22;4953980;28;45789;-69
2023/11/17 16:06:10;;;;;;;;;1.67;1.00;;;;;22.10;44.28;102121.56;4955120;28;45401;-69
2023/11/17 16:08:36;;;;;;;;;1.00;1.00;;;;;22.14;43.99;102125.59;4954949;28;45760;-70
2023/11/17 16:11:08;;;;;;;;;1.00;1.00;;;;;22.07;44.35;102120.88;4955157;28;45471;-70
2023/11/17 16:13:33;;;;;;;;;2.67;1.00;;;;;22.16;43.85;102137.72;4953607;28;45468;-69
2023/11/17 16:15:59;;;;;;;;;1.67;1.67;;;;;22.17;43.89;102138.56;4954942;28;45945;-69
2023/11/17 16:18:24;;;;;;;;;1.00;1.00;;;;;22.17;44.18;102151.81;4958064;28;46512;-69
2023/11/17 16:20:50;;;;;;;;;1.00;1.00;;;;;22.16;43.93;102150.97;4955244;28;45641;-69
2023/11/17 16:23:16;;;;;;;;;2.00;1.67;;;;;22.10;43.86;102140.13;4955074;28;45413;-69
2023/11/17 16:25:43;;;;;;;;;2.33;1.00;;;;;22.16;43.86;102147.47;4954093;28;46085;-70
2023/11/17 16:28:10;;;;;;;;;1.00;1.00;;;;;22.11;44.12;102142.63;4954879;28;45405;-70
2023/11/17 16:30:38;;;;;;;;;0.33;0.33;;;;;22.14;44.16;102149.47;4954782;28;45342;-69
2023/11/17 16:33:06;;;;;;;;;1.67;1.00;;;;;22.10;43.98;102145.41;4954322;28;45545;-70
2023/11/17 16:35:33;;;;;;;;;1.00;1.00;;;;;22.06;43.85;102145.75;4954448;28;47297;-70
2023/11/17 16:37:59;;;;;;;;;3.00;0.00;;;;;22.14;44.08;102158.25;4953954;28;45621;-70
2023/11/17 16:40:27;;;;;;;;;1.00;1.00;;;;;22.17;43.89;102159.78;4956490;28;45483;-69
2023/11/17 16:43:08;;;;;;;;;1.67;1.33;;;;;22.18;43.86;102158.75;4954911;28;45595;-69
2023/11/17 16:45:35;;;;;;;;;0.00;0.00;;;;;22.17;44.04;102168.53;4955426;28;46016;-70
2023/11/17 16:48:03;;;;;;;;;1.67;1.67;;;;;22.17;43.76;102167.72;4954653;28;45442;-70
2023/11/17 16:50:38;;;;;;;;;0.67;0.67;;;;;22.17;43.86;102167.72;4954519;28;45428;-70
2023/11/17 16:53:05;;;;;;;;;2.00;2.00;;;;;22.15;44.08;102175.81;4954896;28;45314;-69
2023/11/17 16:55:31;;;;;;;;;1.00;1.00;;;;;22.14;43.77;102168.84;4954212;28;46535;-70
2023/11/17 16:57:57;;;;;;;;;1.00;1.00;;;;;22.16;43.75;102171.34;4954427;28;45552;-69
2023/11/17 17:00:23;;;;;;;;;1.00;1.00;;;;;22.10;44.02;102169.28;4954681;28;45758;-69
2023/11/17 17:02:50;;;;;;;;;1.00;1.00;;;;;22.16;44.43;102180.13;4956594;28;45723;-69
2023/11/17 17:05:18;;;;;;;;;2.67;2.00;;;;;22.14;43.98;102178.63;4961949;28;46305;-70
2023/11/17 17:07:46;;;;;;;;;0.33;0.33;;;;;22.04;44.46;102160.94;4977579;28;45380;-70
2023/11/17 17:10:14;;;;;;;;;1.33;1.33;;;;;22.14;44.04;102190.06;4977578;28;45409;-68
2023/11/17 17:12:40;;;;;;;;;1.00;1.00;;;;;22.15;44.47;102188.22;4966298;28;45346;-68
2023/11/17 17:15:10;;;;;;;;;3.67;0.67;;;;;22.11;44.38;102182.41;4957472;28;45306;-70
2023/11/17 17:17:36;;;;;;;;;0.67;0.67;;;;;22.15;44.34;102183.75;4967161;28;45584;-68
2023/11/17 17:20:04;;;;;;;;;1.67;1.67;;;;;22.14;44.66;102190.06;4977779;28;45666;-70
2023/11/17 17:22:29;;;;;;;;;1.00;1.00;;;;;21.95;44.15;102165.31;4977350;28;45464;-70
2023/11/17 17:24:56;;;;;;;;;1.00;1.00;;;;;22.12;44.42;102189.34;4977292;28;46508;-70
2023/11/17 17:27:21;;;;;;;;;2.00;2.00;;;;;22.02;44.11;102178.81;4977378;28;45434;-69
2023/11/17 17:29:47;;;;;;;;;4.00;2.00;;;;;22.10;44.32;102196.63;4960089;28;45381;-70
2023/11/17 17:32:13;;;;;;;;;2.00;0.67;;;;;22.11;43.90;102200.94;4958066;28;45569;-70
2023/11/17 17:34:38;;;;;;;;;1.00;1.00;;;;;22.01;44.63;102186.91;4957591;28;46281;-69
2023/11/17 17:37:04;;;;;;;;;2.00;2.00;;;;;22.10;44.53;102199.28;4957907;28;45322;-70
2023/11/17 17:39:31;;;;;;;;;2.00;1.33;;;;;22.10;44.48;102198.44;4957969;28;45412;-70
2023/11/17 17:41:56;;;;;;;;;1.00;1.00;;;;;22.09;44.35;102204.72;4957743;28;45470;-70
2023/11/17 17:44:22;;;;;;;;;2.00;1.00;;;;;22.07;44.61;102199.56;4957469;28;46261;-69
2023/11/17 17:46:48;;;;;;;;;3.00;2.00;;;;;22.06;44.04;102200.56;4956536;28;45407;-69
2023/11/17 17:49:16;;;;;;;;;2.67;2.67;;;;;22.04;44.50;102199.88;4956702;28;45303;-69
2023/11/17 17:51:43;;;;;;;;;1.67;1.67;;;;;22.05;44.61;102201.53;4957881;28;45333;-69
2023/11/17 17:54:08;;;;;;;;;3.00;2.00;;;;;22.06;44.62;102205.84;4957665;28;46291;-71
2023/11/17 17:56:34;;;;;;;;;2.00;1.67;;;;;22.07;44.52;102204.84;4957672;28;45393;-70
2023/11/17 17:59:02;;;;;;;;;2.33;2.00;;;;;22.00;44.34;102191.38;4957756;28;45299;-71
2023/11/17 18:01:29;;;;;;;;;2.33;2.33;;;;;22.09;44.05;102212.69;4957809;28;45509;-69
2023/11/17 18:03:55;;;;;;;;;2.00;2.00;;;;;22.01;44.18;102195.69;4957580;28;46895;-70
2023/11/17 18:06:24;;;;;;;;;2.00;2.00;;;;;22.10;44.00;102211.69;4957626;28;45413;-73
2023/11/17 18:08:50;;;;;;;;;1.00;0.00;;;;;22.02;44.08;102200.00;4957591;28;45398;-73
2023/11/17 18:11:18;;;;;;;;;1.33;1.00;;;;;22.10;44.08;102209.88;4957264;28;45382;-72
2023/11/17 18:13:43;;;;;;;;;2.00;2.00;;;;;22.03;44.42;102201.69;4957240;28;46218;-72
2023/11/17 18:16:09;;;;;;;;;1.00;1.00;;;;;22.11;44.12;102213.34;4957493;28;45375;-72
2023/11/17 18:18:34;;;;;;;;;2.00;1.33;;;;;22.13;44.27;102216.69;4957468;28;47644;-73
2023/11/17 18:21:02;;;;;;;;;1.00;1.00;;;;;22.13;44.66;102219.34;4957595;28;45254;-73
2023/11/17 18:23:27;;;;;;;;;2.00;2.00;;;;;22.03;44.27;102206.16;4957479;28;45424;-73
2023/11/17 18:25:52;;;;;;;;;2.67;1.67;;;;;22.06;44.54;102204.03;4957271;28;45362;-73
2023/11/17 18:28:19;;;;;;;;;1.00;1.00;;;;;22.06;44.42;102212.00;4956811;28;53929;-73
2023/11/17 18:30:45;;;;;;;;;1.00;1.00;;;;;22.07;44.11;102211.00;4957405;28;45307;-73
2023/11/17 18:33:10;;;;;;;;;2.67;2.33;;;;;22.12;44.41;102226.44;4957066;28;46594;-73
2023/11/17 18:35:35;;;;;;;;;1.00;1.00;;;;;22.12;44.11;102210.56;4957085;28;45424;-71
2023/11/17 18:38:01;;;;;;;;;2.00;2.00;;;;;22.13;44.24;102216.69;4955970;28;45334;-72
2023/11/17 18:40:27;;;;;;;;;5.00;2.00;;;;;22.06;44.47;102203.22;4957314;28;45405;-72
2023/11/17 18:42:57;;;;;;;;;1.67;1.67;;;;;22.12;44.17;102209.75;4956844;28;46401;-72
2023/11/17 18:45:23;;;;;;;;;4.00;3.00;;;;;22.09;44.35;102208.22;4956975;28;45596;-72
2023/11/17 18:47:49;;;;;;;;;2.00;2.00;;;;;22.12;44.24;102212.38;4957111;28;45358;-73
2023/11/17 18:50:15;;;;;;;;;4.00;1.67;;;;;22.11;44.09;102216.84;4957102;28;45323;-72
2023/11/17 18:52:42;;;;;;;;;3.00;1.67;;;;;22.04;44.36;102202.53;4956683;28;46192;-72
2023/11/17 18:55:09;;;;;;;;;2.00;2.00;;;;;22.05;44.29;102206.81;4957023;28;45466;-72
2023/11/17 18:57:34;;;;;;;;;2.33;2.33;;;;;22.12;44.62;102215.03;4956614;28;45305;-72
2023/11/17 18:59:59;;;;;;;;;3.33;3.00;;;;;22.09;44.61;102213.53;4956548;28;45306;-73
2023/11/17 19:02:26;;;;;;;;;4.00;2.33;;;;;22.04;44.41;102207.81;4956930;28;46273;-73
2023/11/17 19:04:52;;;;;;;;;3.00;2.00;;;;;22.06;44.62;102216.47;4955576;28;45335;-72
2023/11/17 19:07:18;;;;;;;;;3.00;3.00;;;;;22.10;44.69;102222.28;4955490;28;45354;-73
2023/11/17 19:09:43;;;;;;;;;4.33;2.67;;;;;22.09;44.17;102220.63;4956868;28;45348;-72
2023/11/17 19:12:11;;;;;;;;;2.00;2.00;;;;;21.98;44.40;102203.94;4955061;28;45936;-72